Time;durP1;ratioP1;P1;durP2;ratioP2;P2;SDS_P1;SDS_P2;PMS_P1;PMS_P2;Temp;Humidity;BMP_temperature;BMP_pressure;BME280_temperature;BME280_humidity;BME280_pressure;Samples;Min_cycle;Max_cycle;Signal;HPM_P1;HPM_P2
2021/07/26 00:02:23;;;;;;;2.05;1.85;;;25.60;65.60;;;;;;4972218;28;20216;-51
2021/07/26 00:04:50;;;;;;;2.35;2.15;;;25.60;65.60;;;;;;4970406;28;20209;-52
2021/07/26 00:07:16;;;;;;;1.77;1.67;;;25.60;65.70;;;;;;4973758;28;20228;-49
2021/07/26 00:09:43;;;;;;;1.98;1.88;;;25.60;65.70;;;;;;4970812;28;20214;-52
2021/07/26 00:12:09;;;;;;;3.17;2.10;;;25.60;65.50;;;;;;4973917;28;20204;-51
2021/07/26 00:14:36;;;;;;;1.98;1.88;;;25.60;65.50;;;;;;4971613;28;20304;-48
2021/07/26 00:17:02;;;;;;;2.25;2.10;;;25.60;65.50;;;;;;4971112;28;20230;-54
2021/07/26 00:19:28;;;;;;;2.40;2.20;;;25.60;65.50;;;;;;4975695;28;20196;-53
2021/07/26 00:21:55;;;;;;;2.33;1.90;;;25.60;65.50;;;;;;4976817;28;20200;-50
2021/07/26 00:24:21;;;;;;;2.25;2.05;;;25.60;65.50;;;;;;4974214;28;20209;-51
2021/07/26 00:26:48;;;;;;;2.10;1.90;;;25.60;65.60;;;;;;4971481;28;20246;-48
2021/07/26 00:29:14;;;;;;;2.25;2.05;;;25.60;65.40;;;;;;4984579;28;20201;-51
2021/07/26 00:31:41;;;;;;;2.00;1.90;;;25.60;65.50;;;;;;4970271;28;20201;-52
2021/07/26 00:34:07;;;;;;;2.53;2.20;;;25.60;65.50;;;;;;4974379;28;20219;-53
2021/07/26 00:36:34;;;;;;;2.28;2.08;;;25.60;65.50;;;;;;4969714;28;20310;-51
2021/07/26 00:39:00;;;;;;;2.20;2.00;;;25.60;65.50;;;;;;4982404;28;20219;-52
2021/07/26 00:41:27;;;;;;;1.70;1.60;;;25.60;65.40;;;;;;4979346;28;20205;-49
2021/07/26 00:43:53;;;;;;;2.50;2.30;;;25.60;65.50;;;;;;4978683;28;20211;-50
2021/07/26 00:46:20;;;;;;;1.98;1.83;;;25.60;65.60;;;;;;4972317;28;20234;-48
2021/07/26 00:48:46;;;;;;;2.03;1.90;;;25.60;65.60;;;;;;4967919;28;20200;-47
2021/07/26 00:51:13;;;;;;;2.20;2.00;;;25.60;65.60;;;;;;4977053;28;20204;-50
2021/07/26 00:53:39;;;;;;;2.05;1.85;;;25.60;65.70;;;;;;4971657;28;20200;-46
2021/07/26 00:56:06;;;;;;;2.33;2.13;;;25.60;65.60;;;;;;4975425;28;20234;-48
2021/07/26 00:58:32;;;;;;;2.03;1.90;;;25.60;65.60;;;;;;4972979;28;20669;-49
2021/07/26 01:01:00;;;;;;;1.90;1.80;;;25.60;65.60;;;;;;4972577;28;20766;-45
2021/07/26 01:03:26;;;;;;;2.03;1.88;;;25.60;65.60;;;;;;4969619;28;20208;-49
2021/07/26 01:05:53;;;;;;;2.25;2.05;;;25.60;65.60;;;;;;4983975;28;20238;-50
2021/07/26 01:08:20;;;;;;;2.15;1.98;;;25.60;65.70;;;;;;4975829;28;20216;-48
2021/07/26 01:10:46;;;;;;;1.90;1.80;;;25.60;65.60;;;;;;4978676;28;20518;-51
2021/07/26 01:13:13;;;;;;;2.20;2.00;;;25.60;65.60;;;;;;4978244;28;20522;-48
2021/07/26 01:15:39;;;;;;;2.40;2.20;;;25.60;65.60;;;;;;4973243;28;20580;-46
2021/07/26 01:18:10;;;;;;;2.30;2.10;;;25.60;65.70;;;;;;4970472;28;20584;-50
2021/07/26 01:20:36;;;;;;;1.98;1.85;;;25.60;65.70;;;;;;4972252;28;20232;-49
2021/07/26 01:23:03;;;;;;;3.10;2.00;;;25.60;65.60;;;;;;4975471;28;20204;-46
2021/07/26 01:25:29;;;;;;;2.15;2.05;;;25.60;65.70;;;;;;4977422;28;20513;-46
2021/07/26 01:27:56;;;;;;;1.90;1.80;;;25.60;65.70;;;;;;4988007;28;20641;-52
2021/07/26 01:30:22;;;;;;;2.05;1.85;;;25.60;65.70;;;;;;4991875;28;20351;-47
2021/07/26 01:32:49;;;;;;;1.90;1.80;;;25.60;65.70;;;;;;4984966;28;20207;-48
2021/07/26 01:35:15;;;;;;;2.30;2.00;;;25.60;65.80;;;;;;4977684;28;20200;-51
2021/07/26 01:37:41;;;;;;;1.90;1.80;;;25.60;65.80;;;;;;4969816;28;20281;-52
2021/07/26 01:40:08;;;;;;;1.90;1.80;;;25.60;65.80;;;;;;4974005;28;20303;-52
2021/07/26 01:42:34;;;;;;;1.80;1.70;;;25.60;65.80;;;;;;4979453;28;20294;-49
2021/07/26 01:45:01;;;;;;;2.05;1.95;;;25.60;65.90;;;;;;4987343;28;20284;-53
2021/07/26 01:47:27;;;;;;;1.90;1.80;;;25.60;65.90;;;;;;4991559;28;20231;-49
2021/07/26 01:49:54;;;;;;;1.92;1.70;;;25.60;65.90;;;;;;4977727;28;20215;-50
2021/07/26 01:52:21;;;;;;;1.95;1.75;;;25.60;65.80;;;;;;4988305;28;20610;-48
2021/07/26 01:54:47;;;;;;;1.90;1.80;;;25.60;65.80;;;;;;4978183;28;20668;-50
2021/07/26 01:57:14;;;;;;;2.35;1.88;;;25.60;65.80;;;;;;4981081;28;20583;-48
2021/07/26 01:59:41;;;;;;;1.98;1.77;;;25.60;65.90;;;;;;4980803;28;20208;-52
2021/07/26 02:02:07;;;;;;;1.98;1.88;;;25.60;65.90;;;;;;4989205;28;20231;-50
2021/07/26 02:04:33;;;;;;;2.17;1.98;;;25.60;65.90;;;;;;4986859;28;20219;-50
2021/07/26 02:07:00;;;;;;;1.80;1.70;;;25.60;65.90;;;;;;4981662;28;20246;-52
2021/07/26 02:09:26;;;;;;;1.70;1.60;;;25.60;65.90;;;;;;4986997;28;20200;-47
2021/07/26 02:11:53;;;;;;;2.03;1.90;;;25.60;65.90;;;;;;4974630;28;20202;-49
2021/07/26 02:14:19;;;;;;;2.00;1.90;;;25.60;65.90;;;;;;4969448;28;20200;-48
2021/07/26 02:16:46;;;;;;;1.90;1.80;;;25.60;65.90;;;;;;4973806;28;20230;-51
2021/07/26 02:19:12;;;;;;;2.10;1.90;;;25.60;66.00;;;;;;4976232;28;20204;-51
2021/07/26 02:21:38;;;;;;;2.00;1.90;;;25.60;66.00;;;;;;4976841;28;20204;-50
2021/07/26 02:24:07;;;;;;;1.95;1.80;;;25.60;66.10;;;;;;4974438;28;20205;-53
2021/07/26 02:26:34;;;;;;;2.00;1.80;;;25.60;66.00;;;;;;4974105;28;20677;-52
2021/07/26 02:29:00;;;;;;;1.92;1.83;;;25.60;66.00;;;;;;4979805;28;20563;-50
2021/07/26 02:31:27;;;;;;;3.25;2.08;;;25.60;66.00;;;;;;4970239;28;20517;-51
2021/07/26 02:33:53;;;;;;;1.80;1.70;;;25.60;66.10;;;;;;4972932;28;20236;-49
2021/07/26 02:36:20;;;;;;;2.15;1.95;;;25.60;66.10;;;;;;4971248;28;20231;-50
2021/07/26 02:38:46;;;;;;;2.17;2.00;;;25.60;66.10;;;;;;4992269;28;20291;-53
2021/07/26 02:41:13;;;;;;;2.50;1.58;;;25.60;66.10;;;;;;4980571;28;20215;-47
2021/07/26 02:43:39;;;;;;;1.88;1.77;;;25.60;66.10;;;;;;4972439;28;20211;-50
2021/07/26 02:46:06;;;;;;;2.17;1.98;;;25.60;66.90;;;;;;4980498;28;20305;-50
2021/07/26 02:48:33;;;;;;;1.80;1.70;;;25.60;66.10;;;;;;4971905;28;20619;-50
2021/07/26 02:50:59;;;;;;;1.98;1.83;;;25.60;66.20;;;;;;4981862;28;20212;-53
2021/07/26 02:53:26;;;;;;;1.73;1.63;;;25.60;66.10;;;;;;4991695;28;20210;-53
2021/07/26 02:55:52;;;;;;;2.10;2.00;;;25.60;66.20;;;;;;4973180;28;20211;-52
2021/07/26 02:58:20;;;;;;;2.90;1.88;;;25.60;66.10;;;;;;4972515;28;20216;-54
2021/07/26 03:00:46;;;;;;;2.10;1.90;;;25.60;66.10;;;;;;4977082;28;20215;-49
2021/07/26 03:03:13;;;;;;;2.00;1.90;;;25.60;66.20;;;;;;4971734;28;20221;-52
2021/07/26 03:05:39;;;;;;;2.08;1.98;;;25.60;66.00;;;;;;4975805;28;20201;-46
2021/07/26 03:08:06;;;;;;;2.20;2.00;;;25.60;66.20;;;;;;4966176;28;20233;-50
2021/07/26 03:10:32;;;;;;;2.15;1.95;;;25.60;66.20;;;;;;4972021;28;20211;-48
2021/07/26 03:12:58;;;;;;;1.98;1.75;;;25.60;66.20;;;;;;4970758;28;20215;-50
2021/07/26 03:15:25;;;;;;;2.15;1.95;;;25.60;66.20;;;;;;4969238;28;20287;-51
2021/07/26 03:17:51;;;;;;;1.65;1.55;;;25.60;66.20;;;;;;4960799;28;20200;-52
2021/07/26 03:20:18;;;;;;;2.17;1.77;;;25.60;66.10;;;;;;4971832;28;20235;-53
2021/07/26 03:22:45;;;;;;;2.15;2.05;;;25.60;66.00;;;;;;4972174;28;20200;-53
2021/07/26 03:25:12;;;;;;;2.30;2.17;;;25.60;66.10;;;;;;4971083;28;20624;-51
2021/07/26 03:27:38;;;;;;;1.75;1.65;;;25.60;66.10;;;;;;4979355;28;20314;-46
2021/07/26 03:30:05;;;;;;;1.90;1.80;;;25.60;66.20;;;;;;4972932;28;20327;-53
2021/07/26 03:32:31;;;;;;;1.90;1.80;;;25.60;66.10;;;;;;4971739;28;20234;-52
2021/07/26 03:34:58;;;;;;;2.08;1.98;;;25.60;66.20;;;;;;4962744;28;20210;-53
2021/07/26 03:37:24;;;;;;;2.05;1.90;;;25.60;66.20;;;;;;4970566;28;20323;-50
2021/07/26 03:39:50;;;;;;;1.85;1.75;;;25.60;66.20;;;;;;4973761;28;20204;-50
2021/07/26 03:42:17;;;;;;;1.70;1.60;;;25.60;66.10;;;;;;4976273;28;20196;-52
2021/07/26 03:44:43;;;;;;;2.13;2.00;;;25.60;66.10;;;;;;4969508;28;20205;-48
2021/07/26 03:47:10;;;;;;;1.90;1.80;;;25.60;66.10;;;;;;4972074;28;20228;-51
2021/07/26 03:49:36;;;;;;;2.00;1.90;;;25.60;66.10;;;;;;4967152;28;20215;-53
2021/07/26 03:52:03;;;;;;;2.10;1.90;;;25.60;66.20;;;;;;4972320;28;20218;-53
2021/07/26 03:54:29;;;;;;;2.03;1.83;;;25.60;66.20;;;;;;4975373;28;20204;-51
2021/07/26 03:56:55;;;;;;;2.15;2.05;;;25.60;66.00;;;;;;4972729;28;20224;-51
2021/07/26 03:59:22;;;;;;;2.15;1.95;;;25.60;66.00;;;;;;4970123;28;20287;-51
2021/07/26 04:01:48;;;;;;;1.85;1.67;;;25.60;66.10;;;;;;4972252;28;20200;-53
2021/07/26 04:04:16;;;;;;;2.22;1.95;;;25.60;66.30;;;;;;4970760;28;20205;-52
2021/07/26 04:06:47;;;;;;;1.65;1.55;;;25.60;66.40;;;;;;4983256;28;20231;-52
2021/07/26 04:09:14;;;;;;;1.90;1.80;;;25.60;66.40;;;;;;4965751;28;20945;-53
2021/07/26 04:11:41;;;;;;;2.05;1.90;;;25.60;66.40;;;;;;4971937;28;20300;-51
2021/07/26 04:14:09;;;;;;;2.20;2.00;;;25.60;66.40;;;;;;4971852;28;20255;-51
2021/07/26 04:16:36;;;;;;;2.08;1.88;;;25.60;66.40;;;;;;4990826;28;20290;-54
2021/07/26 04:19:03;;;;;;;2.30;1.90;;;25.60;66.30;;;;;;4977026;28;20293;-53
2021/07/26 04:21:30;;;;;;;1.90;1.80;;;25.60;66.40;;;;;;4971180;28;20208;-54
2021/07/26 04:23:56;;;;;;;2.40;1.88;;;25.60;66.30;;;;;;4971274;28;20204;-50
2021/07/26 04:26:23;;;;;;;1.95;1.80;;;25.60;66.30;;;;;;4973714;28;20267;-51
2021/07/26 04:28:49;;;;;;;1.98;1.88;;;25.60;66.30;;;;;;4971954;28;20200;-49
2021/07/26 04:31:15;;;;;;;2.35;1.80;;;25.60;66.30;;;;;;4972827;28;20303;-49
2021/07/26 04:33:42;;;;;;;2.00;1.70;;;25.60;66.30;;;;;;4974901;28;20209;-52
2021/07/26 04:36:08;;;;;;;1.90;1.80;;;25.60;66.30;;;;;;4974888;28;20217;-51
2021/07/26 04:38:35;;;;;;;2.38;1.80;;;25.60;66.30;;;;;;4982565;28;20219;-50
2021/07/26 04:41:01;;;;;;;1.70;1.58;;;25.60;66.40;;;;;;4980865;28;20200;-51
2021/07/26 04:43:28;;;;;;;2.13;1.58;;;25.60;66.40;;;;;;4975569;28;20216;-52
2021/07/26 04:45:55;;;;;;;1.75;1.65;;;25.60;66.30;;;;;;4973649;28;20239;-48
2021/07/26 04:48:21;;;;;;;1.77;1.67;;;25.60;66.30;;;;;;4990109;28;20282;-47
2021/07/26 04:50:48;;;;;;;1.80;1.70;;;25.60;66.40;;;;;;4980142;28;20208;-52
2021/07/26 04:53:14;;;;;;;1.80;1.70;;;25.60;66.30;;;;;;4974637;28;20295;-51
2021/07/26 04:55:41;;;;;;;2.22;2.05;;;25.60;66.30;;;;;;4978265;28;20230;-48
2021/07/26 04:58:07;;;;;;;1.92;1.83;;;25.60;66.30;;;;;;4976156;28;20203;-51
2021/07/26 05:00:34;;;;;;;1.85;1.75;;;25.60;66.30;;;;;;4974215;28;20287;-50
2021/07/26 05:03:00;;;;;;;1.80;1.70;;;25.60;66.30;;;;;;4975253;28;20633;-49
2021/07/26 05:05:27;;;;;;;2.22;2.03;;;25.60;66.30;;;;;;4985478;28;20680;-48
2021/07/26 05:07:53;;;;;;;1.80;1.70;;;25.60;66.40;;;;;;4974430;28;20719;-45
2021/07/26 05:10:19;;;;;;;1.80;1.70;;;25.60;66.30;;;;;;4955639;29;20205;-45
2021/07/26 05:12:46;;;;;;;1.73;1.63;;;25.60;66.30;;;;;;4972086;28;20744;-46
2021/07/26 05:15:12;;;;;;;1.98;1.85;;;25.60;66.30;;;;;;4968723;28;20220;-45
2021/07/26 05:17:39;;;;;;;3.22;1.75;;;25.60;66.30;;;;;;4973765;28;20210;-53
2021/07/26 05:20:05;;;;;;;2.05;1.83;;;25.60;66.90;;;;;;4973972;28;20197;-49
2021/07/26 05:22:31;;;;;;;2.33;1.95;;;25.60;66.30;;;;;;4972594;28;20204;-46
2021/07/26 05:24:58;;;;;;;1.95;1.75;;;25.60;66.30;;;;;;4991802;28;20204;-50
2021/07/26 05:27:28;;;;;;;2.92;1.92;;;25.60;66.30;;;;;;4983637;28;20314;-48
2021/07/26 05:29:54;;;;;;;1.45;1.35;;;25.60;66.20;;;;;;4979267;28;20267;-47
2021/07/26 05:32:21;;;;;;;2.28;2.08;;;25.60;66.20;;;;;;4974381;28;20201;-51
2021/07/26 05:34:48;;;;;;;2.47;1.85;;;25.60;66.10;;;;;;4971122;28;20204;-47
2021/07/26 05:37:14;;;;;;;1.90;1.80;;;25.60;66.10;;;;;;4979313;28;20732;-48
2021/07/26 05:39:41;;;;;;;2.00;1.80;;;25.60;66.10;;;;;;4987944;28;20201;-48
2021/07/26 05:42:10;;;;;;;1.65;1.55;;;25.60;66.10;;;;;;4974559;28;20525;-49
2021/07/26 05:44:37;;;;;;;2.13;1.92;;;25.60;66.10;;;;;;4977129;28;20204;-49
2021/07/26 05:47:03;;;;;;;2.08;1.88;;;25.60;66.10;;;;;;4974212;28;20601;-47
2021/07/26 05:49:30;;;;;;;1.88;1.77;;;25.60;66.00;;;;;;4969753;28;20719;-50
2021/07/26 05:51:57;;;;;;;2.15;1.80;;;25.60;66.10;;;;;;4980779;28;20212;-46
2021/07/26 05:54:23;;;;;;;2.20;1.90;;;25.60;66.10;;;;;;4979700;28;20279;-49
2021/07/26 05:56:50;;;;;;;1.90;1.80;;;25.60;66.10;;;;;;4987525;28;20307;-53
2021/07/26 05:59:17;;;;;;;1.80;1.70;;;25.60;66.10;;;;;;4980442;28;20300;-53
2021/07/26 06:01:49;;;;;;;1.77;1.67;;;25.60;66.10;;;;;;4973811;28;20232;-46
2021/07/26 06:04:16;;;;;;;1.90;1.80;;;25.60;66.10;;;;;;4986268;28;20204;-51
2021/07/26 06:06:43;;;;;;;1.85;1.70;;;25.60;66.10;;;;;;4973454;28;20705;-49
2021/07/26 06:09:09;;;;;;;1.85;1.75;;;25.60;66.10;;;;;;4973982;28;20211;-52
2021/07/26 06:11:36;;;;;;;2.33;2.13;;;25.60;66.10;;;;;;4972614;28;20686;-51
2021/07/26 06:14:02;;;;;;;1.88;1.60;;;25.60;66.10;;;;;;4973752;28;20311;-52
2021/07/26 06:16:29;;;;;;;2.20;2.00;;;25.60;66.10;;;;;;4983015;28;20221;-50
2021/07/26 06:18:55;;;;;;;2.08;1.90;;;25.60;66.00;;;;;;4973298;28;20642;-49
2021/07/26 06:21:22;;;;;;;1.90;1.80;;;25.60;66.00;;;;;;4970355;28;20296;-50
2021/07/26 06:23:48;;;;;;;1.90;1.80;;;25.60;66.00;;;;;;4974674;28;20207;-47
2021/07/26 06:26:15;;;;;;;1.92;1.83;;;25.60;66.00;;;;;;4981709;28;20582;-48
2021/07/26 06:28:41;;;;;;;2.05;1.85;;;25.60;66.10;;;;;;4975446;28;20290;-47
2021/07/26 06:31:10;;;;;;;1.60;1.45;;;25.60;66.00;;;;;;4980854;28;20201;-52
2021/07/26 06:33:36;;;;;;;1.80;1.70;;;25.60;66.00;;;;;;4972586;28;20549;-46
2021/07/26 06:36:03;;;;;;;1.63;1.52;;;25.60;65.90;;;;;;4979156;28;20314;-47
2021/07/26 06:38:29;;;;;;;1.70;1.60;;;25.60;65.90;;;;;;4972556;28;20216;-48
2021/07/26 06:40:56;;;;;;;2.38;1.48;;;25.60;65.90;;;;;;4973146;28;20312;-48
2021/07/26 06:43:22;;;;;;;1.77;1.67;;;25.60;65.80;;;;;;4972341;28;20200;-52
2021/07/26 06:45:49;;;;;;;1.90;1.70;;;25.60;65.80;;;;;;4971710;28;20730;-48
2021/07/26 06:48:15;;;;;;;1.60;1.50;;;25.60;65.80;;;;;;4972820;28;20316;-46
2021/07/26 06:50:42;;;;;;;1.60;1.50;;;25.60;65.60;;;;;;4976030;28;20295;-50
2021/07/26 06:53:08;;;;;;;1.33;1.23;;;25.60;65.60;;;;;;4973489;28;20288;-45
2021/07/26 06:55:35;;;;;;;1.65;1.55;;;25.60;65.50;;;;;;4976658;28;20755;-48
2021/07/26 06:58:01;;;;;;;1.70;1.60;;;25.60;65.60;;;;;;4972552;28;20200;-50
2021/07/26 07:00:28;;;;;;;1.88;1.60;;;25.60;65.70;;;;;;4973990;28;20287;-53
2021/07/26 07:02:55;;;;;;;2.65;1.63;;;25.70;65.80;;;;;;4970714;28;20237;-43
2021/07/26 07:05:21;;;;;;;4.45;1.90;;;25.70;66.00;;;;;;4963951;28;20314;-44
2021/07/26 07:07:47;;;;;;;1.80;1.70;;;25.60;66.40;;;;;;4966690;28;20235;-48
2021/07/26 07:10:14;;;;;;;3.42;1.80;;;25.60;66.30;;;;;;4970085;28;20207;-45
2021/07/26 07:12:40;;;;;;;3.58;1.88;;;25.60;66.70;;;;;;4972842;28;20241;-47
2021/07/26 07:15:07;;;;;;;2.00;1.80;;;25.70;66.40;;;;;;4970754;28;20252;-42
2021/07/26 07:17:33;;;;;;;2.88;1.70;;;25.70;66.30;;;;;;4970266;28;22219;-46
2021/07/26 07:20:00;;;;;;;3.60;2.33;;;25.70;66.20;;;;;;4971708;28;20692;-48
2021/07/26 07:22:26;;;;;;;2.42;2.20;;;25.70;66.50;;;;;;4968280;28;20227;-49
2021/07/26 07:24:53;;;;;;;4.15;1.90;;;25.70;66.90;;;;;;4971013;28;20311;-50
2021/07/26 07:27:19;;;;;;;2.95;2.17;;;25.70;66.80;;;;;;4968643;28;20206;-52
2021/07/26 07:29:46;;;;;;;3.88;2.20;;;25.70;67.20;;;;;;4971427;28;20214;-48
2021/07/26 07:32:13;;;;;;;4.38;2.25;;;25.80;67.70;;;;;;4970636;28;20291;-51
2021/07/26 07:34:39;;;;;;;6.60;2.55;;;25.70;67.90;;;;;;4970227;28;20211;-51
2021/07/26 07:37:08;;;;;;;2.72;2.03;;;25.70;68.10;;;;;;4971664;28;20207;-47
2021/07/26 07:39:34;;;;;;;4.82;2.05;;;25.70;68.00;;;;;;4972166;28;20205;-47
2021/07/26 07:42:01;;;;;;;4.95;2.70;;;25.70;67.90;;;;;;4970032;28;20204;-48
2021/07/26 07:44:32;;;;;;;5.50;3.60;;;25.70;68.30;;;;;;4965858;28;20653;-47
2021/07/26 07:46:58;;;;;;;4.65;3.92;;;24.90;65.20;;;;;;4970808;28;20299;-45
2021/07/26 07:49:25;;;;;;;4.40;3.70;;;23.80;65.70;;;;;;4971175;28;20238;-49
2021/07/26 07:51:52;;;;;;;5.20;3.78;;;23.00;67.70;;;;;;4971244;28;20296;-51
2021/07/26 07:54:18;;;;;;;6.22;3.92;;;23.30;67.70;;;;;;4969286;28;20215;-50
2021/07/26 07:56:46;;;;;;;4.63;3.78;;;23.10;67.20;;;;;;4968661;28;20224;-46
2021/07/26 07:59:12;;;;;;;4.32;3.20;;;23.30;67.20;;;;;;4987393;28;20605;-48
2021/07/26 08:01:39;;;;;;;4.68;3.70;;;23.40;66.40;;;;;;4974211;28;20208;-54
2021/07/26 08:04:05;;;;;;;3.97;3.45;;;23.30;67.00;;;;;;4970638;28;20240;-51
2021/07/26 08:06:32;;;;;;;3.83;3.42;;;23.50;67.00;;;;;;4971626;28;20224;-49
2021/07/26 08:08:58;;;;;;;3.42;3.13;;;23.80;67.30;;;;;;4975889;28;20239;-48
2021/07/26 08:11:24;;;;;;;3.90;2.92;;;24.10;66.90;;;;;;4975264;28;20214;-47
2021/07/26 08:13:51;;;;;;;3.90;3.10;;;24.40;66.70;;;;;;4974862;28;20200;-47
2021/07/26 08:16:18;;;;;;;3.70;3.35;;;24.50;66.30;;;;;;4974497;28;20220;-47
2021/07/26 08:18:44;;;;;;;4.53;3.47;;;24.70;66.80;;;;;;4975687;28;20215;-47
2021/07/26 08:21:11;;;;;;;5.13;3.70;;;24.80;66.60;;;;;;4974465;28;20208;-50
2021/07/26 08:23:37;;;;;;;3.78;3.20;;;24.90;66.10;;;;;;4973102;28;20200;-44
2021/07/26 08:26:04;;;;;;;3.45;2.95;;;24.90;65.80;;;;;;4973862;28;20777;-48
2021/07/26 08:28:30;;;;;;;4.28;2.90;;;25.00;65.60;;;;;;4974525;28;20224;-43
2021/07/26 08:30:57;;;;;;;4.15;3.35;;;25.10;65.50;;;;;;4974672;28;20211;-44
2021/07/26 08:33:23;;;;;;;7.15;3.45;;;25.10;65.40;;;;;;4971395;28;20209;-42
2021/07/26 08:35:50;;;;;;;3.40;3.10;;;25.20;65.60;;;;;;4971859;28;20224;-42
2021/07/26 08:38:16;;;;;;;3.90;3.50;;;25.20;65.60;;;;;;4972826;28;20230;-48
2021/07/26 08:40:43;;;;;;;4.30;3.17;;;25.20;66.70;;;;;;4971896;28;20545;-57
2021/07/26 08:43:11;;;;;;;3.97;3.15;;;25.20;67.00;;;;;;4973697;28;20299;-49
2021/07/26 08:45:37;;;;;;;2.88;2.63;;;25.30;66.60;;;;;;4972663;28;20286;-44
2021/07/26 08:48:04;;;;;;;3.25;2.92;;;25.30;66.30;;;;;;4974881;28;20236;-47
2021/07/26 08:50:30;;;;;;;3.63;2.63;;;25.30;66.50;;;;;;4973894;28;20295;-43
2021/07/26 08:52:57;;;;;;;2.90;2.60;;;25.40;66.40;;;;;;4974139;28;20209;-43
2021/07/26 08:55:23;;;;;;;3.38;2.83;;;25.30;66.10;;;;;;4971400;28;20303;-48
2021/07/26 08:57:50;;;;;;;2.67;2.47;;;25.40;66.80;;;;;;4973184;28;20701;-44
2021/07/26 09:00:16;;;;;;;4.18;3.35;;;25.40;65.90;;;;;;4973466;28;20650;-47
2021/07/26 09:02:43;;;;;;;3.63;2.85;;;25.40;65.60;;;;;;4974474;28;20200;-43
2021/07/26 09:05:09;;;;;;;6.50;3.30;;;25.40;66.10;;;;;;4971670;28;20220;-44
2021/07/26 09:07:36;;;;;;;18.23;4.10;;;25.40;66.00;;;;;;4971746;28;20208;-45
2021/07/26 09:10:02;;;;;;;7.32;4.00;;;25.40;66.00;;;;;;4972510;28;20211;-48
2021/07/26 09:12:29;;;;;;;5.93;3.35;;;25.20;65.90;;;;;;4966335;28;20291;-50
2021/07/26 09:14:55;;;;;;;3.13;2.67;;;25.30;65.70;;;;;;4973588;28;20228;-48
2021/07/26 09:17:22;;;;;;;3.67;2.80;;;25.40;65.70;;;;;;4972915;28;20204;-46
2021/07/26 09:19:48;;;;;;;3.72;3.20;;;25.40;65.60;;;;;;4972085;28;20209;-48
2021/07/26 09:22:14;;;;;;;4.38;2.90;;;25.40;65.50;;;;;;4971775;28;20216;-45
2021/07/26 09:24:41;;;;;;;3.45;3.15;;;25.50;65.50;;;;;;4972400;28;20234;-48
2021/07/26 09:27:08;;;;;;;4.03;3.15;;;25.50;65.30;;;;;;4972904;28;20377;-47
2021/07/26 09:29:35;;;;;;;4.43;3.10;;;25.50;65.20;;;;;;4970296;28;20247;-48
2021/07/26 09:32:01;;;;;;;3.88;3.05;;;25.50;65.40;;;;;;4970718;28;20337;-45
2021/07/26 09:34:28;;;;;;;4.30;3.22;;;25.50;65.40;;;;;;4971959;28;20220;-45
2021/07/26 09:36:54;;;;;;;3.38;2.95;;;25.50;65.20;;;;;;4973202;28;20761;-47
2021/07/26 09:39:21;;;;;;;4.90;3.28;;;25.60;65.30;;;;;;4973208;28;20296;-46
2021/07/26 09:41:48;;;;;;;3.00;2.80;;;25.50;65.40;;;;;;4972870;28;20205;-45
2021/07/26 09:44:14;;;;;;;5.32;2.92;;;25.50;65.60;;;;;;4967783;28;20208;-47
2021/07/26 09:46:43;;;;;;;3.90;2.95;;;25.50;65.50;;;;;;4978580;28;20204;-49
2021/07/26 09:49:10;;;;;;;3.13;2.83;;;25.60;65.60;;;;;;4974423;28;20237;-51
2021/07/26 09:51:36;;;;;;;6.10;2.80;;;25.60;65.60;;;;;;4953857;28;20670;-45
2021/07/26 09:54:03;;;;;;;4.30;2.90;;;25.60;65.70;;;;;;4954233;28;20552;-45
2021/07/26 09:56:29;;;;;;;3.58;2.63;;;25.60;65.70;;;;;;4972209;28;20220;-46
2021/07/26 09:58:56;;;;;;;4.38;2.90;;;25.60;65.80;;;;;;4985612;28;20201;-50
2021/07/26 10:01:22;;;;;;;4.05;2.70;;;25.60;65.80;;;;;;4973813;28;20215;-48
2021/07/26 10:03:49;;;;;;;3.05;2.75;;;25.60;65.90;;;;;;4973020;28;20227;-46
2021/07/26 10:06:15;;;;;;;6.22;3.10;;;25.60;65.90;;;;;;4972453;28;20375;-48
2021/07/26 10:08:42;;;;;;;3.28;2.50;;;25.60;65.80;;;;;;4973517;28;20759;-49
2021/07/26 10:11:08;;;;;;;3.40;3.10;;;25.60;65.80;;;;;;4973348;28;20555;-47
2021/07/26 10:13:34;;;;;;;2.92;2.70;;;25.60;65.80;;;;;;4973780;28;20571;-48
2021/07/26 10:16:01;;;;;;;3.90;3.42;;;25.60;65.70;;;;;;4973125;28;20766;-45
2021/07/26 10:18:27;;;;;;;4.00;2.60;;;25.60;65.70;;;;;;4973791;28;20208;-49
2021/07/26 10:20:54;;;;;;;3.05;2.75;;;25.60;65.70;;;;;;4973199;28;20260;-49
2021/07/26 10:23:20;;;;;;;3.45;2.67;;;25.60;65.70;;;;;;4973388;28;20250;-47
2021/07/26 10:25:47;;;;;;;3.50;2.80;;;25.70;65.70;;;;;;4972813;28;20231;-51
2021/07/26 10:28:13;;;;;;;2.92;2.60;;;25.70;65.70;;;;;;4971447;28;20228;-48
2021/07/26 10:30:40;;;;;;;3.17;2.88;;;25.60;65.70;;;;;;4967670;28;20719;-48
2021/07/26 10:33:06;;;;;;;3.88;2.65;;;25.60;65.70;;;;;;4973132;28;20205;-45
2021/07/26 10:35:33;;;;;;;2.90;2.67;;;25.70;65.70;;;;;;4972555;28;20630;-47
2021/07/26 10:37:59;;;;;;;3.47;2.63;;;25.70;65.80;;;;;;4973135;28;20566;-49
2021/07/26 10:40:26;;;;;;;3.50;2.90;;;25.70;65.70;;;;;;4972968;28;20197;-48
2021/07/26 10:42:52;;;;;;;3.20;2.92;;;25.70;65.70;;;;;;4967554;28;20210;-48
2021/07/26 10:45:19;;;;;;;4.78;2.80;;;25.70;66.70;;;;;;4978646;28;20219;-49
2021/07/26 10:47:45;;;;;;;3.40;2.70;;;25.70;67.10;;;;;;4975659;28;20244;-49
2021/07/26 10:50:12;;;;;;;4.63;3.22;;;25.70;67.40;;;;;;4971726;28;20708;-49
2021/07/26 10:52:38;;;;;;;4.50;3.40;;;25.70;68.50;;;;;;4970211;28;20231;-44
2021/07/26 10:55:05;;;;;;;6.10;4.10;;;25.70;68.20;;;;;;4972730;28;20232;-41
2021/07/26 10:57:31;;;;;;;3.67;3.33;;;25.60;66.70;;;;;;4971039;28;20212;-44
2021/07/26 10:59:58;;;;;;;3.85;3.28;;;25.60;66.90;;;;;;4972212;28;20205;-48
2021/07/26 11:02:24;;;;;;;5.32;3.05;;;25.60;66.90;;;;;;4969975;28;20208;-44
2021/07/26 11:04:53;;;;;;;4.47;3.75;;;25.60;67.00;;;;;;4968555;28;20230;-51
2021/07/26 11:07:20;;;;;;;6.05;4.10;;;25.60;64.90;;;;;;4978152;28;20205;-47
2021/07/26 11:09:46;;;;;;;3.70;3.30;;;25.40;64.60;;;;;;4971173;28;20346;-51
2021/07/26 11:12:13;;;;;;;5.82;3.58;;;25.40;65.30;;;;;;4967416;28;20197;-47
2021/07/26 11:14:40;;;;;;;3.25;3.05;;;25.50;65.70;;;;;;4972074;28;20216;-44
2021/07/26 11:17:08;;;;;;;8.25;3.72;;;25.60;65.70;;;;;;4967274;28;20653;-50
2021/07/26 11:19:34;;;;;;;4.25;3.60;;;25.60;66.50;;;;;;4972159;28;20220;-48
2021/07/26 11:22:01;;;;;;;6.07;3.40;;;25.60;67.10;;;;;;4971155;28;20204;-46
2021/07/26 11:24:27;;;;;;;4.82;2.90;;;25.60;67.20;;;;;;4971688;28;20224;-43
2021/07/26 11:26:54;;;;;;;7.18;3.40;;;25.70;67.40;;;;;;4972091;28;20223;-44
2021/07/26 11:29:20;;;;;;;6.03;3.20;;;25.70;67.40;;;;;;4967523;28;20246;-47
2021/07/26 11:31:47;;;;;;;6.05;3.17;;;25.70;67.50;;;;;;4972133;28;20207;-43
2021/07/26 11:34:14;;;;;;;4.90;2.90;;;25.70;67.40;;;;;;4971871;28;20224;-44
2021/07/26 11:36:40;;;;;;;5.68;3.78;;;25.70;67.40;;;;;;4972336;28;20302;-45
2021/07/26 11:39:07;;;;;;;4.72;3.47;;;25.80;67.60;;;;;;4972267;28;20532;-48
2021/07/26 11:41:33;;;;;;;3.88;2.90;;;25.80;67.50;;;;;;4972309;28;20575;-46
2021/07/26 11:44:00;;;;;;;6.50;3.28;;;25.80;67.70;;;;;;4967694;28;20262;-41
2021/07/26 11:46:27;;;;;;;3.20;2.90;;;25.80;67.10;;;;;;4971185;28;20251;-43
2021/07/26 11:48:54;;;;;;;4.32;2.78;;;25.70;67.90;;;;;;4970356;28;20315;-49
2021/07/26 11:51:20;;;;;;;4.00;3.38;;;25.70;67.80;;;;;;4977501;28;20199;-47
2021/07/26 11:53:47;;;;;;;17.67;12.32;;;25.80;67.90;;;;;;4980379;28;20224;-43
2021/07/26 11:56:13;;;;;;;28.33;19.33;;;25.80;67.70;;;;;;4974673;28;20575;-43
2021/07/26 11:58:40;;;;;;;45.13;33.17;;;25.70;67.80;;;;;;4972194;28;20336;-43
2021/07/26 12:01:06;;;;;;;48.90;31.27;;;25.70;67.70;;;;;;4972613;28;20200;-45
2021/07/26 12:03:33;;;;;;;45.70;32.17;;;25.80;67.90;;;;;;4971382;28;20203;-45
2021/07/26 12:05:59;;;;;;;41.17;30.02;;;25.80;67.80;;;;;;4970120;28;20216;-48
2021/07/26 12:08:26;;;;;;;44.45;29.20;;;25.80;67.90;;;;;;4971849;28;20210;-45
2021/07/26 12:10:52;;;;;;;41.65;29.75;;;25.80;67.80;;;;;;4961945;28;20209;-46
2021/07/26 12:13:19;;;;;;;44.80;30.60;;;25.80;67.90;;;;;;4959375;28;20200;-49
2021/07/26 12:15:45;;;;;;;43.33;29.48;;;25.80;67.90;;;;;;4971394;28;20208;-48
2021/07/26 12:18:12;;;;;;;39.00;29.38;;;25.80;67.90;;;;;;4967990;28;20611;-43
2021/07/26 12:20:38;;;;;;;43.40;29.98;;;25.80;67.80;;;;;;4977395;28;20209;-44
2021/07/26 12:23:05;;;;;;;40.28;30.08;;;25.80;67.70;;;;;;4969542;28;20642;-44
2021/07/26 12:25:31;;;;;;;36.92;26.50;;;25.80;67.60;;;;;;4987164;28;20699;-44
2021/07/26 12:27:58;;;;;;;42.88;29.65;;;25.80;67.90;;;;;;4986088;28;20219;-46
2021/07/26 12:30:25;;;;;;;43.75;27.70;;;25.80;67.60;;;;;;4976545;28;20228;-46
2021/07/26 12:32:51;;;;;;;36.72;26.15;;;25.80;67.40;;;;;;4973309;28;20208;-47
2021/07/26 12:35:18;;;;;;;33.92;20.70;;;25.80;67.50;;;;;;4974366;28;20228;-47
2021/07/26 12:37:44;;;;;;;20.67;13.93;;;25.70;65.90;;;;;;4978325;28;20289;-45
2021/07/26 12:40:11;;;;;;;10.65;8.00;;;25.70;65.00;;;;;;4981238;28;20378;-47
2021/07/26 12:42:37;;;;;;;8.43;7.25;;;25.50;64.30;;;;;;4969761;28;20204;-49